Estación Meteorológica Peña el Pijo (Robertgarden) [ 07/23/19 13:02:52 CEST ]

Fecha Hora Presion(HPa) Temp (°C) Humedad % Rocio (°C) Viento ( m/s) Direccion Lluvia 1Hora(mm) Lluvia 24H(mm) LLuvia Total(mm)
2019-Mar-10 01:01:35 1020.500 4.1 67 -1.5         184.40
2019-Mar-10 02:01:42 1020.200 3.9 69 -1.3         184.40
2019-Mar-10 03:01:49 1019.800 3.9 70 -1.1         184.40
2019-Mar-10 04:01:40 1019.300 3.7 71 -1.1         184.40
2019-Mar-10 05:01:41 1019.000 3.4 73 -1.0         184.40
2019-Mar-10 06:01:39 1019.400 2.9 74 -1.3         184.40
2019-Mar-10 07:01:32 1019.300 3.2 76 -0.6         184.40
2019-Mar-10 08:01:27 1019.400 2.8 77 -0.8         184.40
2019-Mar-10 09:01:57 1019.600 7.4 77 3.6         184.40
2019-Mar-10 10:01:38 1019.600 14.9 53 5.4         184.40
2019-Mar-10 11:01:46 1019.200 20.4 35 4.3 0.6 E     184.40
2019-Mar-10 12:01:50 1018.400 22.3 31 4.3         184.40
2019-Mar-10 13:01:53 1018.200 21.0 31 3.2         184.40
2019-Mar-10 14:01:57 1017.600 22.2 29 3.3         184.40
2019-Mar-10 15:01:52 1017.000 23.3 25 1.9         184.40
2019-Mar-10 16:01:44 1016.500 22.8 24 1.0         184.40
2019-Mar-10 17:02:07 1016.300 22.9 25 1.6         184.40
2019-Mar-10 18:01:39 1016.100 21.3 29 2.5         184.40
2019-Mar-10 19:01:47 1016.600 17.8 38 3.2         184.40
2019-Mar-10 20:01:56 1017.100 14.9 44 2.7         184.40
2019-Mar-10 21:01:44 1017.700 11.3 52 1.8         184.40
2019-Mar-10 22:01:40 1018.000 10.1 58 2.2         184.40
2019-Mar-10 23:01:34 1018.200 9.2 61 2.1         184.40

Temperatura Máxima:23°    Temperatura Mínima:
Presión Máxima:1020.500 Hpa    Presión Mínima:1016.100 Hpa


Volver